createdAt,value
2023-04-30T00:00:42.930Z,25.02
2023-04-30T00:03:10.269Z,26.10
2023-04-30T00:05:38.761Z,25.20
2023-04-30T00:08:08.397Z,26.25
2023-04-30T00:10:35.075Z,23.60
2023-04-30T00:13:12.772Z,22.95
2023-04-30T00:15:46.503Z,22.40
2023-04-30T00:18:13.138Z,23.58
2023-04-30T00:20:39.788Z,22.60
2023-04-30T00:23:09.874Z,22.70
2023-04-30T00:25:37.054Z,22.92
2023-04-30T00:28:09.779Z,22.95
2023-04-30T00:30:39.505Z,23.00
2023-04-30T00:33:08.999Z,22.42
2023-04-30T00:35:35.611Z,22.77
2023-04-30T00:38:03.413Z,22.08
2023-04-30T00:40:30.330Z,21.20
2023-04-30T00:42:57.568Z,20.83
2023-04-30T00:45:26.460Z,20.48
2023-04-30T00:47:54.581Z,21.38
2023-04-30T00:50:21.342Z,21.45
2023-04-30T00:52:48.119Z,20.92
2023-04-30T00:55:15.437Z,21.77
2023-04-30T00:57:53.363Z,22.63
2023-04-30T01:00:25.127Z,21.33
2023-04-30T01:02:54.422Z,21.23
2023-04-30T01:05:23.650Z,21.65
2023-04-30T01:08:00.724Z,23.13
2023-04-30T01:10:48.103Z,21.95
2023-04-30T01:13:30.930Z,21.48
2023-04-30T01:16:09.157Z,20.40
2023-04-30T01:19:09.064Z,21.98
2023-04-30T01:21:51.465Z,21.63
2023-04-30T01:24:38.664Z,22.70
2023-04-30T01:27:14.839Z,22.80
2023-04-30T01:29:43.836Z,23.60
2023-04-30T01:32:13.889Z,23.35
2023-04-30T01:34:50.618Z,22.80
2023-04-30T01:37:32.439Z,23.65
2023-04-30T01:40:19.782Z,23.80
2023-04-30T01:43:09.310Z,23.95
2023-04-30T01:46:28.173Z,22.35
2023-04-30T01:49:09.896Z,22.27
2023-04-30T01:51:47.092Z,22.40
2023-04-30T01:54:59.473Z,24.17
2023-04-30T02:00:00.232Z,20.33
2023-04-30T02:02:26.922Z,20.20
2023-04-30T02:04:53.637Z,20.10
2023-04-30T02:07:46.323Z,19.33
2023-04-30T02:10:13.686Z,19.85
2023-04-30T02:12:43.090Z,19.90
2023-04-30T02:15:10.487Z,21.38
2023-04-30T02:17:37.167Z,20.80
2023-04-30T02:20:04.634Z,21.15
2023-04-30T02:22:31.775Z,18.42
2023-04-30T02:24:58.391Z,21.73
2023-04-30T02:27:30.957Z,19.55
2023-04-30T02:29:58.099Z,21.13
2023-04-30T02:32:30.639Z,20.55
2023-04-30T02:35:04.126Z,22.45
2023-04-30T02:37:31.357Z,21.05
2023-04-30T02:39:58.164Z,20.38
2023-04-30T02:42:33.412Z,22.30
2023-04-30T02:45:01.410Z,21.40
2023-04-30T02:47:37.221Z,22.95
2023-04-30T02:50:04.098Z,22.50
2023-04-30T02:52:34.819Z,22.67
2023-04-30T02:55:11.411Z,22.02
2023-04-30T02:57:44.931Z,23.35
2023-04-30T03:00:17.706Z,23.85
2023-04-30T03:02:47.239Z,23.15
2023-04-30T03:05:21.090Z,23.50
2023-04-30T03:07:47.841Z,22.83
2023-04-30T03:10:14.536Z,24.17
2023-04-30T03:12:41.298Z,23.75
2023-04-30T03:15:09.257Z,24.58
2023-04-30T03:17:36.161Z,22.80
2023-04-30T03:20:08.909Z,23.33
2023-04-30T03:22:40.500Z,21.85
2023-04-30T03:25:07.589Z,22.98
2023-04-30T03:27:34.315Z,22.35
2023-04-30T03:30:02.429Z,22.90
2023-04-30T03:32:29.398Z,23.42
2023-04-30T03:34:56.566Z,21.88
2023-04-30T03:37:28.099Z,23.52
2023-04-30T03:40:08.987Z,24.02
2023-04-30T03:42:40.922Z,24.30
2023-04-30T03:45:16.579Z,24.58
2023-04-30T03:47:43.555Z,26.13
2023-04-30T03:50:10.983Z,24.83
2023-04-30T03:52:37.949Z,25.38
2023-04-30T03:55:05.374Z,24.05
2023-04-30T03:57:32.963Z,24.52
2023-04-30T04:00:00.532Z,24.90
2023-04-30T04:02:28.510Z,24.83
2023-04-30T04:04:55.204Z,24.35
2023-04-30T04:07:21.798Z,26.25
2023-04-30T04:09:49.000Z,23.83
2023-04-30T04:12:15.767Z,23.38
2023-04-30T04:14:42.390Z,23.95
2023-04-30T04:17:09.035Z,23.67
2023-04-30T04:19:35.676Z,23.90
2023-04-30T04:22:04.963Z,24.52
2023-04-30T04:24:31.857Z,24.13
2023-04-30T04:26:58.511Z,23.02
2023-04-30T04:29:25.769Z,24.30
2023-04-30T04:31:52.414Z,24.70
2023-04-30T04:34:20.170Z,24.20
2023-04-30T04:36:49.879Z,22.65
2023-04-30T04:39:28.283Z,22.25
2023-04-30T04:41:55.317Z,23.60
2023-04-30T04:44:22.502Z,22.65
2023-04-30T04:46:54.067Z,22.45
2023-04-30T04:49:21.060Z,22.95
2023-04-30T04:51:47.980Z,23.38
2023-04-30T04:54:14.631Z,23.60
2023-04-30T04:56:41.441Z,24.42
2023-04-30T04:59:10.898Z,23.25
2023-04-30T05:01:40.520Z,24.38
2023-04-30T05:04:09.721Z,25.10
2023-04-30T05:06:36.864Z,25.40
2023-04-30T05:09:05.327Z,22.60
2023-04-30T05:11:32.141Z,23.10
2023-04-30T05:13:58.730Z,24.92
2023-04-30T05:16:27.941Z,24.70
2023-04-30T05:19:02.121Z,24.08
2023-04-30T05:21:32.259Z,26.00
2023-04-30T05:24:04.100Z,24.85
2023-04-30T05:28:59.977Z,23.95
2023-04-30T05:31:26.617Z,24.08
2023-04-30T05:33:53.272Z,24.05
2023-04-30T05:36:21.353Z,24.67
2023-04-30T05:38:47.958Z,24.50
2023-04-30T05:41:14.567Z,25.15
2023-04-30T05:43:44.227Z,25.52
2023-04-30T05:46:10.832Z,26.10
2023-04-30T05:48:39.214Z,24.25
2023-04-30T05:51:06.747Z,23.48
2023-04-30T05:53:34.726Z,24.65
2023-04-30T05:56:13.445Z,25.83
2023-04-30T05:58:49.093Z,24.35
2023-04-30T06:01:15.761Z,24.45
2023-04-30T06:03:49.733Z,24.35
2023-04-30T06:06:18.870Z,24.33
2023-04-30T06:08:48.232Z,25.05
2023-04-30T06:11:15.458Z,24.02
2023-04-30T06:13:42.419Z,24.60
2023-04-30T06:16:09.208Z,22.80
2023-04-30T06:18:44.094Z,22.75
2023-04-30T06:21:17.768Z,23.52
2023-04-30T06:23:44.625Z,23.63
2023-04-30T06:26:14.614Z,23.50
2023-04-30T06:28:46.641Z,24.90
2023-04-30T06:31:13.705Z,24.92
2023-04-30T06:33:43.084Z,25.13
2023-04-30T06:36:09.811Z,27.02
2023-04-30T06:38:36.932Z,25.90
2023-04-30T06:41:03.613Z,26.95
2023-04-30T06:43:31.980Z,27.80
2023-04-30T06:46:01.458Z,27.08
2023-04-30T06:48:31.234Z,27.05
2023-04-30T06:50:59.896Z,27.60
2023-04-30T06:53:28.338Z,26.75
2023-04-30T06:55:56.703Z,25.80
2023-04-30T06:58:27.164Z,27.23
2023-04-30T07:00:54.256Z,27.80
2023-04-30T07:03:21.679Z,25.90
2023-04-30T07:05:48.389Z,22.10
2023-04-30T07:08:20.783Z,21.55
2023-04-30T07:10:53.710Z,25.30
2023-04-30T07:13:20.684Z,22.45
2023-04-30T07:15:50.611Z,23.90
2023-04-30T07:18:17.714Z,25.13
2023-04-30T07:20:48.940Z,22.80
2023-04-30T07:23:23.435Z,22.45
2023-04-30T07:25:50.117Z,22.30
2023-04-30T07:28:16.743Z,19.95
2023-04-30T07:30:43.305Z,19.60
2023-04-30T07:33:13.554Z,20.83
2023-04-30T07:35:40.133Z,20.42
2023-04-30T07:38:06.851Z,18.85
2023-04-30T07:40:36.378Z,19.02
2023-04-30T07:43:05.144Z,19.52
2023-04-30T07:45:32.235Z,17.92
2023-04-30T07:47:58.898Z,18.80
2023-04-30T07:50:25.725Z,18.42
2023-04-30T07:52:59.534Z,17.48
2023-04-30T07:55:26.332Z,18.95
2023-04-30T07:57:54.461Z,18.33
2023-04-30T08:00:21.168Z,19.45
2023-04-30T08:02:50.694Z,19.42
2023-04-30T08:05:22.486Z,18.58
2023-04-30T08:07:49.063Z,18.25
2023-04-30T08:10:15.714Z,17.63
2023-04-30T08:12:42.648Z,15.60
2023-04-30T08:15:09.380Z,15.60
2023-04-30T08:17:39.159Z,17.40
2023-04-30T08:20:08.217Z,16.85
2023-04-30T08:22:36.387Z,15.27
2023-04-30T08:25:03.527Z,18.23
2023-04-30T08:27:32.434Z,17.27
2023-04-30T08:29:59.082Z,17.70
2023-04-30T08:32:26.135Z,18.52
2023-04-30T08:34:54.502Z,17.23
2023-04-30T08:37:21.262Z,16.35
2023-04-30T08:39:47.892Z,15.52
2023-04-30T08:42:15.541Z,15.43
2023-04-30T08:44:46.721Z,14.82
2023-04-30T08:47:27.865Z,14.13
2023-04-30T08:49:56.516Z,14.65
2023-04-30T08:52:23.479Z,13.98
2023-04-30T08:54:52.324Z,12.70
2023-04-30T08:57:20.434Z,12.60
2023-04-30T08:59:47.612Z,11.88
2023-04-30T09:02:29.319Z,11.02
2023-04-30T09:07:29.137Z,10.40
2023-04-30T09:10:00.838Z,10.00
2023-04-30T09:12:33.393Z,10.90
2023-04-30T09:15:05.345Z,12.15
2023-04-30T09:17:39.168Z,12.00
2023-04-30T09:20:13.436Z,12.13
2023-04-30T09:22:41.956Z,12.80
2023-04-30T09:25:11.853Z,12.50
2023-04-30T09:27:38.723Z,12.15
2023-04-30T09:30:09.304Z,13.25
2023-04-30T09:32:36.888Z,13.52
2023-04-30T09:35:04.323Z,13.93
2023-04-30T09:37:39.835Z,14.27
2023-04-30T09:40:10.506Z,15.65
2023-04-30T09:42:37.370Z,14.53
2023-04-30T09:45:05.389Z,12.70
2023-04-30T09:47:39.785Z,12.35
2023-04-30T09:50:06.999Z,11.93
2023-04-30T09:52:33.548Z,11.05
2023-04-30T09:55:06.013Z,12.38
2023-04-30T09:57:36.314Z,10.75
2023-04-30T10:00:03.952Z,10.73
2023-04-30T10:02:31.104Z,11.48
2023-04-30T10:04:58.778Z,11.73
2023-04-30T10:07:36.902Z,12.27
2023-04-30T10:10:08.459Z,12.68
2023-04-30T10:18:28.571Z,13.32
2023-04-30T10:20:57.169Z,13.13
2023-04-30T10:23:28.129Z,14.38
2023-04-30T10:25:57.636Z,15.35
2023-04-30T10:28:25.339Z,14.82
2023-04-30T10:30:55.395Z,16.00
2023-04-30T10:33:54.586Z,15.57
2023-04-30T10:37:07.308Z,14.10
2023-04-30T10:39:40.174Z,14.77
2023-04-30T10:42:10.203Z,14.13
2023-04-30T10:44:42.878Z,14.20
2023-04-30T10:47:13.914Z,14.15
2023-04-30T10:49:48.482Z,13.93
2023-04-30T10:52:34.829Z,14.77
2023-04-30T10:55:07.945Z,13.57
2023-04-30T10:57:43.437Z,14.63
2023-04-30T11:00:12.342Z,12.45
2023-04-30T11:02:50.099Z,14.60
2023-04-30T11:05:18.568Z,15.68
2023-04-30T11:07:57.266Z,14.55
2023-04-30T11:10:26.488Z,14.23
2023-04-30T11:12:56.926Z,12.82
2023-04-30T11:15:33.724Z,12.55
2023-04-30T11:18:01.025Z,10.52
2023-04-30T11:20:28.384Z,9.18
2023-04-30T11:23:21.834Z,8.85
2023-04-30T11:25:55.188Z,8.57
2023-04-30T11:28:28.944Z,7.40
2023-04-30T11:31:03.130Z,7.70
2023-04-30T11:33:32.080Z,7.93
2023-04-30T11:36:01.932Z,7.15
2023-04-30T11:38:34.464Z,7.57
2023-04-30T11:41:01.916Z,8.10
2023-04-30T11:43:31.169Z,6.72
2023-04-30T11:46:23.562Z,7.55
2023-04-30T11:48:54.439Z,5.63
2023-04-30T11:51:27.070Z,4.97
2023-04-30T11:53:54.083Z,5.82
2023-04-30T11:56:32.902Z,4.78
2023-04-30T11:58:59.809Z,4.80
2023-04-30T12:01:28.943Z,4.65
2023-04-30T12:04:00.880Z,4.68
2023-04-30T12:06:28.954Z,4.97
2023-04-30T12:09:09.295Z,4.93
2023-04-30T12:11:41.895Z,4.80
2023-04-30T12:14:17.838Z,4.65
2023-04-30T12:17:04.137Z,5.15
2023-04-30T12:19:31.641Z,5.35
2023-04-30T12:21:58.754Z,4.70
2023-04-30T12:24:27.818Z,4.60
2023-04-30T12:26:54.855Z,5.25
2023-04-30T12:29:28.550Z,4.43
2023-04-30T12:32:03.686Z,5.22
2023-04-30T12:34:32.937Z,5.05
2023-04-30T12:37:01.995Z,4.65
2023-04-30T12:39:38.837Z,5.25
2023-04-30T12:42:07.685Z,5.07
2023-04-30T12:44:47.730Z,4.88
2023-04-30T12:47:19.293Z,4.50
2023-04-30T12:49:47.036Z,4.72
2023-04-30T12:52:15.526Z,4.63
2023-04-30T12:54:42.346Z,4.65
2023-04-30T12:57:11.071Z,4.63
2023-04-30T12:59:59.011Z,4.72
2023-04-30T13:02:29.688Z,5.82
2023-04-30T13:04:57.168Z,5.05
2023-04-30T13:07:24.019Z,5.05
2023-04-30T13:09:50.860Z,4.28
2023-04-30T13:12:20.490Z,4.93
2023-04-30T13:14:48.439Z,5.10
2023-04-30T13:17:18.464Z,5.70
2023-04-30T13:19:46.125Z,4.57
2023-04-30T13:22:12.874Z,4.55
2023-04-30T13:24:39.759Z,4.82
2023-04-30T13:27:06.821Z,5.03
2023-04-30T13:29:36.212Z,5.15
2023-04-30T13:32:10.312Z,5.18
2023-04-30T13:34:37.044Z,5.55
2023-04-30T13:37:03.785Z,5.15
2023-04-30T13:39:30.584Z,5.38
2023-04-30T13:41:57.214Z,5.20
2023-04-30T13:44:24.993Z,5.68
2023-04-30T13:46:52.000Z,4.95
2023-04-30T13:49:18.691Z,4.95
2023-04-30T13:51:47.782Z,5.05
2023-04-30T13:54:14.422Z,5.35
2023-04-30T13:56:41.654Z,5.00
2023-04-30T13:59:08.427Z,5.07
2023-04-30T14:01:35.084Z,5.13
2023-04-30T14:04:02.633Z,5.63
2023-04-30T14:06:29.859Z,5.10
2023-04-30T14:08:56.639Z,5.63
2023-04-30T14:11:23.391Z,5.90
2023-04-30T14:13:50.154Z,5.07
2023-04-30T14:16:19.084Z,4.95
2023-04-30T14:18:45.694Z,6.03
2023-04-30T14:21:12.414Z,4.13
2023-04-30T14:23:39.620Z,5.60
2023-04-30T14:26:14.791Z,4.72
2023-04-30T14:28:42.142Z,5.22
2023-04-30T14:31:09.450Z,5.30
2023-04-30T14:33:36.233Z,5.45
2023-04-30T14:36:03.102Z,5.05
2023-04-30T14:38:41.079Z,5.50
2023-04-30T14:41:11.475Z,8.10
2023-04-30T14:43:38.584Z,5.18
2023-04-30T14:46:21.141Z,5.47
2023-04-30T14:48:51.592Z,4.90
2023-04-30T14:51:18.931Z,4.90
2023-04-30T14:53:50.107Z,4.93
2023-04-30T14:56:17.310Z,4.43
2023-04-30T14:58:44.312Z,5.63
2023-04-30T15:01:11.026Z,5.35
2023-04-30T15:03:39.618Z,4.90
2023-04-30T15:06:06.797Z,5.63
2023-04-30T15:08:33.545Z,5.00
2023-04-30T15:11:07.325Z,4.75
2023-04-30T15:13:37.170Z,4.25
2023-04-30T15:16:08.396Z,5.10
2023-04-30T15:18:36.236Z,4.63
2023-04-30T15:21:07.027Z,5.00
2023-04-30T15:23:33.919Z,5.78
2023-04-30T15:26:01.872Z,5.25
2023-04-30T15:28:28.490Z,5.28
2023-04-30T15:30:55.313Z,5.40
2023-04-30T15:33:29.121Z,5.13
2023-04-30T15:35:56.462Z,5.22
2023-04-30T15:38:23.151Z,4.95
2023-04-30T15:40:52.040Z,5.22
2023-04-30T15:43:21.042Z,4.60
2023-04-30T15:45:52.120Z,4.32
2023-04-30T15:48:19.096Z,4.53
2023-04-30T15:50:51.320Z,4.32
2023-04-30T15:53:17.945Z,4.43
2023-04-30T15:55:59.816Z,4.30
2023-04-30T15:58:26.440Z,3.80
2023-04-30T16:00:55.912Z,3.88
2023-04-30T16:03:22.773Z,4.38
2023-04-30T16:05:49.583Z,3.90
2023-04-30T16:08:16.505Z,4.53
2023-04-30T16:10:43.709Z,3.95
2023-04-30T16:13:10.297Z,3.85
2023-04-30T16:15:36.941Z,4.43
2023-04-30T16:18:03.621Z,4.25
2023-04-30T16:20:33.473Z,3.72
2023-04-30T16:23:07.709Z,3.90
2023-04-30T16:25:34.583Z,4.28
2023-04-30T16:28:09.718Z,3.53
2023-04-30T16:30:38.003Z,3.28
2023-04-30T16:33:04.790Z,3.50
2023-04-30T16:35:31.546Z,3.25
2023-04-30T16:37:58.413Z,3.08
2023-04-30T16:40:27.245Z,3.35
2023-04-30T16:42:56.838Z,3.72
2023-04-30T16:45:23.501Z,3.13
2023-04-30T16:47:50.137Z,3.47
2023-04-30T16:50:17.022Z,3.70
2023-04-30T16:52:47.709Z,3.03
2023-04-30T16:55:14.672Z,3.77
2023-04-30T16:57:41.549Z,4.13
2023-04-30T17:03:02.296Z,4.03
2023-04-30T17:05:32.047Z,3.50
2023-04-30T17:07:58.819Z,4.18
2023-04-30T17:10:26.668Z,3.65
2023-04-30T17:12:53.556Z,3.85
2023-04-30T17:15:30.938Z,4.18
2023-04-30T17:17:59.278Z,4.18
2023-04-30T17:20:31.373Z,3.60
2023-04-30T17:22:59.347Z,4.32
2023-04-30T17:25:32.080Z,4.38
2023-04-30T17:28:01.602Z,4.10
2023-04-30T17:30:29.261Z,3.88
2023-04-30T17:32:56.659Z,3.72
2023-04-30T17:35:23.545Z,4.15
2023-04-30T17:37:50.230Z,4.40
2023-04-30T17:40:21.578Z,4.43
2023-04-30T17:42:51.606Z,4.10
2023-04-30T17:45:19.262Z,4.10
2023-04-30T17:47:46.047Z,4.28
2023-04-30T17:50:15.707Z,4.15
2023-04-30T17:52:42.537Z,4.55
2023-04-30T17:55:09.832Z,4.70
2023-04-30T17:57:37.001Z,4.57
2023-04-30T18:00:05.307Z,4.38
2023-04-30T18:02:32.799Z,4.70
2023-04-30T18:05:05.430Z,4.90
2023-04-30T18:07:32.373Z,4.70
2023-04-30T18:09:59.762Z,4.22
2023-04-30T18:12:27.000Z,4.57
2023-04-30T18:14:53.620Z,4.53
2023-04-30T18:17:24.440Z,5.05
2023-04-30T18:19:51.180Z,5.25
2023-04-30T18:22:19.677Z,5.03
2023-04-30T18:24:46.347Z,5.60
2023-04-30T18:27:13.323Z,5.03
2023-04-30T18:29:40.105Z,4.85
2023-04-30T18:32:06.880Z,6.00
2023-04-30T18:34:37.555Z,5.80
2023-04-30T18:39:31.970Z,5.45
2023-04-30T18:41:58.730Z,5.75
2023-04-30T18:44:31.802Z,5.65
2023-04-30T18:46:59.140Z,5.75
2023-04-30T18:49:28.445Z,5.72
2023-04-30T18:51:55.460Z,5.75
2023-04-30T18:54:27.578Z,6.13
2023-04-30T18:56:58.594Z,6.03
2023-04-30T18:59:29.156Z,6.70
2023-04-30T19:01:57.441Z,6.43
2023-04-30T19:04:24.267Z,6.72
2023-04-30T19:06:52.542Z,6.60
2023-04-30T19:09:19.859Z,7.72
2023-04-30T19:11:46.646Z,7.10
2023-04-30T19:14:13.756Z,6.22
2023-04-30T19:16:45.646Z,6.85
2023-04-30T19:19:13.183Z,7.72
2023-04-30T19:21:40.122Z,7.28
2023-04-30T19:24:08.419Z,6.88
2023-04-30T19:26:37.505Z,7.68
2023-04-30T19:29:06.945Z,7.90
2023-04-30T19:31:40.585Z,8.13
2023-04-30T19:34:17.504Z,7.93
2023-04-30T19:36:47.317Z,7.40
2023-04-30T19:39:15.746Z,6.43
2023-04-30T19:41:43.038Z,6.80
2023-04-30T19:44:10.362Z,7.35
2023-04-30T19:46:38.013Z,6.43
2023-04-30T19:49:05.413Z,6.78
2023-04-30T19:51:32.300Z,6.38
2023-04-30T19:54:04.178Z,6.70
2023-04-30T19:56:32.193Z,7.07
2023-04-30T19:58:59.890Z,6.63
2023-04-30T20:01:30.857Z,7.43
2023-04-30T20:04:02.160Z,6.85
2023-04-30T20:06:32.073Z,7.03
2023-04-30T20:11:52.425Z,6.68
2023-04-30T20:14:19.967Z,7.28
2023-04-30T20:17:01.419Z,8.07
2023-04-30T20:19:28.950Z,8.02
2023-04-30T20:22:07.450Z,8.02
2023-04-30T20:24:41.081Z,8.05
2023-04-30T20:27:08.872Z,9.80
2023-04-30T20:29:43.047Z,9.43
2023-04-30T20:32:10.221Z,9.98
2023-04-30T20:34:37.459Z,9.82
2023-04-30T20:37:11.125Z,9.63
2023-04-30T20:39:49.155Z,11.02
2023-04-30T20:42:19.898Z,10.52
2023-04-30T20:44:49.507Z,10.80
2023-04-30T20:47:25.141Z,10.88
2023-04-30T20:49:58.040Z,11.40
2023-04-30T20:52:34.492Z,11.63
2023-04-30T20:55:08.962Z,11.85
2023-04-30T20:57:37.497Z,12.50
2023-04-30T21:00:08.323Z,12.02
2023-04-30T21:02:36.886Z,12.43
2023-04-30T21:05:05.549Z,11.68
2023-04-30T21:07:45.757Z,11.75
2023-04-30T21:10:20.459Z,13.23
2023-04-30T21:12:47.100Z,12.15
2023-04-30T21:15:13.757Z,13.68
2023-04-30T21:17:40.490Z,13.38
2023-04-30T21:20:13.079Z,13.32
2023-04-30T21:22:39.824Z,13.88
2023-04-30T21:25:07.484Z,12.40
2023-04-30T21:27:41.187Z,14.30
2023-04-30T21:30:08.797Z,12.88
2023-04-30T21:32:35.694Z,12.45
2023-04-30T21:35:02.375Z,14.23
2023-04-30T21:37:29.293Z,13.85
2023-04-30T21:40:01.235Z,13.82
2023-04-30T21:42:32.086Z,14.20
2023-04-30T21:44:59.846Z,13.75
2023-04-30T21:47:27.062Z,13.18
2023-04-30T21:50:00.157Z,16.73
2023-04-30T21:52:26.991Z,13.25
2023-04-30T21:55:00.312Z,13.82
2023-04-30T21:57:30.538Z,14.05
2023-04-30T21:59:59.669Z,13.02
2023-04-30T22:02:27.052Z,13.88
2023-04-30T22:04:56.596Z,13.88
2023-04-30T22:07:24.628Z,13.93
2023-04-30T22:09:55.100Z,14.90
2023-04-30T22:12:25.190Z,14.18
2023-04-30T22:14:55.696Z,14.10
2023-04-30T22:17:24.753Z,14.45
2023-04-30T22:19:51.751Z,14.27
2023-04-30T22:22:18.401Z,14.82
2023-04-30T22:24:45.199Z,15.65
2023-04-30T22:27:11.894Z,15.65
2023-04-30T22:29:41.289Z,15.15
2023-04-30T22:32:11.496Z,16.48
2023-04-30T22:34:41.039Z,14.73
2023-04-30T22:37:14.689Z,15.13
2023-04-30T22:39:57.470Z,14.55
2023-04-30T22:42:27.083Z,14.43
2023-04-30T22:44:58.502Z,15.90
2023-04-30T22:47:28.461Z,15.55
2023-04-30T22:49:56.473Z,15.02
2023-04-30T22:52:23.744Z,16.27
2023-04-30T22:54:50.411Z,17.52
2023-04-30T22:57:20.073Z,17.63
2023-04-30T22:59:49.388Z,16.95
2023-04-30T23:02:17.772Z,18.58
2023-04-30T23:04:44.522Z,17.40
2023-04-30T23:07:11.306Z,17.38
2023-04-30T23:09:43.337Z,17.00
2023-04-30T23:12:13.800Z,17.20
2023-04-30T23:14:40.379Z,17.23
2023-04-30T23:17:07.239Z,16.85
2023-04-30T23:19:34.272Z,17.27
2023-04-30T23:22:04.476Z,17.00
2023-04-30T23:24:39.332Z,17.15
2023-04-30T23:27:09.841Z,17.65
2023-04-30T23:29:41.020Z,17.83
2023-04-30T23:32:13.559Z,19.25
2023-04-30T23:34:42.619Z,18.00
2023-04-30T23:37:12.580Z,19.75
2023-04-30T23:39:41.990Z,19.05
2023-04-30T23:42:08.908Z,20.15
2023-04-30T23:44:41.316Z,19.58
2023-04-30T23:47:08.026Z,19.65
2023-04-30T23:49:39.476Z,20.55
2023-04-30T23:52:07.262Z,20.88
2023-04-30T23:54:39.286Z,18.52
2023-04-30T23:57:11.138Z,19.67
2023-04-30T23:59:37.830Z,19.52
